createdAt,value
2023-03-03T00:02:24.575Z,1023.7
2023-03-03T00:08:21.163Z,1023.7
2023-03-03T00:13:30.420Z,1023.6
2023-03-03T00:19:09.981Z,1023.7
2023-03-03T00:24:57.334Z,1023.6
2023-03-03T00:30:09.264Z,1023.7
2023-03-03T00:35:48.793Z,1023.6
2023-03-03T00:41:30.447Z,1023.6
2023-03-03T00:46:54.075Z,1023.6
2023-03-03T00:52:31.153Z,1023.8
2023-03-03T00:57:56.656Z,1023.8
2023-03-03T01:03:42.241Z,1023.8
2023-03-03T01:09:08.476Z,1023.8
2023-03-03T01:14:43.520Z,1023.8
2023-03-03T01:20:23.058Z,1023.8
2023-03-03T01:25:55.501Z,1023.8
2023-03-03T01:31:10.997Z,1023.8
2023-03-03T01:36:40.736Z,1023.9
2023-03-03T01:42:19.634Z,1023.8
2023-03-03T01:47:43.474Z,1023.9
2023-03-03T01:53:42.753Z,1023.9
2023-03-03T01:58:48.496Z,1023.8
2023-03-03T02:04:32.239Z,1023.9
2023-03-03T02:09:57.562Z,1023.9
2023-03-03T02:15:27.606Z,1024
2023-03-03T02:21:09.451Z,1023.9
2023-03-03T02:26:40.888Z,1023.8
2023-03-03T02:32:27.034Z,1023.8
2023-03-03T02:37:39.427Z,1023.7
2023-03-03T02:43:28.433Z,1023.6
2023-03-03T02:48:48.376Z,1023.7
2023-03-03T02:54:34.292Z,1023.8
2023-03-03T03:00:04.469Z,1023.8
2023-03-03T03:05:36.392Z,1023.8
2023-03-03T03:11:18.122Z,1023.9
2023-03-03T03:16:52.495Z,1023.9
2023-03-03T03:22:16.598Z,1023.9
2023-03-03T03:27:34.443Z,1023.9
2023-03-03T03:33:03.976Z,1023.9
2023-03-03T03:38:40.369Z,1023.8
2023-03-03T03:44:21.584Z,1023.9
2023-03-03T03:50:08.074Z,1024
2023-03-03T03:55:35.367Z,1024
2023-03-03T04:00:46.488Z,1023.9
2023-03-03T04:06:45.535Z,1024
2023-03-03T04:12:06.969Z,1023.9
2023-03-03T04:17:29.435Z,1023.8
2023-03-03T04:23:04.208Z,1023.9
2023-03-03T04:28:44.892Z,1023.9
2023-03-03T04:34:23.469Z,1023.9
2023-03-03T04:39:51.913Z,1023.9
2023-03-03T04:45:22.234Z,1023.8
2023-03-03T04:51:01.651Z,1023.7
2023-03-03T04:56:36.407Z,1023.9
2023-03-03T05:01:54.405Z,1023.8
2023-03-03T05:07:42.230Z,1023.7
2023-03-03T05:12:54.537Z,1023.8
2023-03-03T05:18:32.042Z,1023.8
2023-03-03T05:24:21.048Z,1023.8
2023-03-03T05:29:36.444Z,1023.9
2023-03-03T05:35:11.341Z,1023.8
2023-03-03T05:40:54.022Z,1023.9
2023-03-03T05:46:24.895Z,1023.9
2023-03-03T05:52:04.980Z,1023.9
2023-03-03T05:57:11.931Z,1024
2023-03-03T06:02:51.535Z,1024
2023-03-03T06:08:18.512Z,1024.1
2023-03-03T06:13:56.925Z,1024.1
2023-03-03T06:19:48.914Z,1024.2
2023-03-03T06:25:07.011Z,1024.4
2023-03-03T06:30:48.593Z,1024.4
2023-03-03T06:35:59.074Z,1024.4
2023-03-03T06:41:47.804Z,1024.4
2023-03-03T06:52:59.671Z,1024.4
2023-03-03T06:58:21.676Z,1024.4
2023-03-03T07:03:50.166Z,1024.6
2023-03-03T07:09:19.999Z,1024.6
2023-03-03T07:15:15.389Z,1024.7
2023-03-03T07:20:47.011Z,1024.7
2023-03-03T07:26:04.437Z,1024.7
2023-03-03T07:31:29.755Z,1024.8
2023-03-03T07:37:14.370Z,1024.7
2023-03-03T07:42:53.234Z,1024.7
2023-03-03T07:48:20.975Z,1024.8
2023-03-03T07:54:01.965Z,1024.6
2023-03-03T07:59:38.298Z,1024.7
2023-03-03T08:04:51.241Z,1024.7
2023-03-03T08:10:42.532Z,1024.8
2023-03-03T08:16:12.433Z,1024.7
2023-03-03T08:21:32.370Z,1024.7
2023-03-03T08:27:22.112Z,1024.7
2023-03-03T08:32:38.530Z,1024.7
2023-03-03T08:38:09.959Z,1024.6
2023-03-03T08:43:38.319Z,1024.6
2023-03-03T08:49:20.510Z,1024.6
2023-03-03T08:54:46.529Z,1024.5
2023-03-03T09:00:13.103Z,1024.4
2023-03-03T09:05:57.999Z,1024.3
2023-03-03T09:11:42.856Z,1024.4
2023-03-03T09:17:13.271Z,1024.4
2023-03-03T09:22:28.980Z,1024.4
2023-03-03T09:28:25.517Z,1024.3
2023-03-03T09:33:51.120Z,1024.3
2023-03-03T09:39:13.432Z,1024.3
2023-03-03T09:44:56.080Z,1024.3
2023-03-03T09:50:28.687Z,1024.2
2023-03-03T09:55:56.554Z,1024.3
2023-03-03T10:01:30.754Z,1024.2
2023-03-03T10:07:11.623Z,1024.1
2023-03-03T10:12:42.421Z,1024
2023-03-03T10:18:07.721Z,1023.9
2023-03-03T10:23:55.686Z,1023.8
2023-03-03T10:29:34.379Z,1023.7
2023-03-03T10:35:07.870Z,1023.8
2023-03-03T10:40:24.663Z,1023.6
2023-03-03T10:45:50.665Z,1023.6
2023-03-03T10:51:50.629Z,1023.6
2023-03-03T10:57:01.064Z,1023.8
2023-03-03T11:02:53.642Z,1023.6
2023-03-03T11:08:26.480Z,1023.6
2023-03-03T11:13:56.007Z,1023.6
2023-03-03T11:19:39.789Z,1023.6
2023-03-03T11:25:08.865Z,1023.7
2023-03-03T11:30:44.401Z,1023.6
2023-03-03T11:36:24.324Z,1023.5
2023-03-03T11:41:50.540Z,1023.4
2023-03-03T11:47:31.354Z,1023.4
2023-03-03T11:53:10.476Z,1023.3
2023-03-03T11:58:17.626Z,1023.1
2023-03-03T12:04:11.043Z,1023.1
2023-03-03T12:09:46.042Z,1023
2023-03-03T12:15:24.926Z,1023
2023-03-03T12:20:36.972Z,1022.9
2023-03-03T12:26:27.139Z,1022.7
2023-03-03T12:31:57.686Z,1022.5
2023-03-03T12:37:24.357Z,1022.3
2023-03-03T12:42:59.413Z,1022.3
2023-03-03T12:48:31.435Z,1022.2
2023-03-03T12:54:16.061Z,1022
2023-03-03T12:59:53.699Z,1022.1
2023-03-03T13:05:30.166Z,1022
2023-03-03T13:11:01.513Z,1021.9
2023-03-03T13:16:51.695Z,1021.8
2023-03-03T13:22:12.671Z,1021.8
2023-03-03T13:27:50.221Z,1021.5
2023-03-03T13:33:35.677Z,1021.6
2023-03-03T13:39:20.090Z,1021.3
2023-03-03T13:44:50.129Z,1021.2
2023-03-03T13:50:25.237Z,1021.2
2023-03-03T13:56:06.724Z,1021.1
2023-03-03T14:01:35.318Z,1021
2023-03-03T14:07:26.479Z,1021.1
2023-03-03T14:12:41.001Z,1021
2023-03-03T14:18:32.372Z,1020.8
2023-03-03T14:23:52.328Z,1020.9
2023-03-03T14:29:45.828Z,1020.9
2023-03-03T14:35:25.267Z,1020.9
2023-03-03T14:41:05.051Z,1020.9
2023-03-03T14:46:12.840Z,1021
2023-03-03T14:51:52.416Z,1021
2023-03-03T14:57:50.341Z,1021
2023-03-03T15:03:25.201Z,1020.9
2023-03-03T15:08:49.442Z,1020.9
2023-03-03T15:14:08.209Z,1020.9
2023-03-03T15:19:49.739Z,1020.8
2023-03-03T15:25:43.577Z,1020.8
2023-03-03T15:31:17.399Z,1020.8
2023-03-03T15:36:56.528Z,1020.9
2023-03-03T15:42:28.945Z,1020.9
2023-03-03T15:47:50.267Z,1021
2023-03-03T15:53:40.108Z,1021
2023-03-03T15:59:11.710Z,1021.1
2023-03-03T16:04:41.897Z,1021.2
2023-03-03T16:10:21.204Z,1021.3
2023-03-03T16:15:56.664Z,1021.4
2023-03-03T16:21:12.251Z,1021.4
2023-03-03T16:26:40.568Z,1021.6
2023-03-03T16:32:12.982Z,1021.6
2023-03-03T16:38:09.459Z,1021.8
2023-03-03T16:43:24.681Z,1021.8
2023-03-03T16:48:58.658Z,1022
2023-03-03T16:54:44.959Z,1022.1
2023-03-03T17:00:10.595Z,1022.1
2023-03-03T17:05:45.091Z,1022.2
2023-03-03T17:11:09.593Z,1022.2
2023-03-03T17:16:51.339Z,1022.4
2023-03-03T17:22:28.304Z,1022.5
2023-03-03T17:27:52.874Z,1022.6
2023-03-03T17:33:32.266Z,1022.8
2023-03-03T17:38:54.204Z,1023
2023-03-03T17:44:35.381Z,1023.1
2023-03-03T17:50:24.509Z,1023.2
2023-03-03T17:55:50.651Z,1023.2
2023-03-03T18:01:20.414Z,1023.2
2023-03-03T18:06:39.108Z,1023.3
2023-03-03T18:12:23.973Z,1023.3
2023-03-03T18:18:03.072Z,1023.4
2023-03-03T18:23:43.497Z,1023.3
2023-03-03T18:29:03.586Z,1023.5
2023-03-03T18:34:49.018Z,1023.6
2023-03-03T18:40:20.239Z,1023.7
2023-03-03T18:45:53.138Z,1023.9
2023-03-03T18:51:24.187Z,1023.9
2023-03-03T18:56:40.639Z,1023.9
2023-03-03T19:02:25.963Z,1024.1
2023-03-03T19:08:02.106Z,1023.9
2023-03-03T19:13:24.437Z,1024
2023-03-03T19:19:05.178Z,1023.9
2023-03-03T19:24:31.049Z,1023.8
2023-03-03T19:30:03.074Z,1024
2023-03-03T19:35:31.286Z,1024
2023-03-03T19:41:15.767Z,1024.1
2023-03-03T19:46:53.343Z,1024
2023-03-03T19:52:31.905Z,1023.9
2023-03-03T19:57:57.473Z,1024.1
2023-03-03T20:03:15.997Z,1024.1
2023-03-03T20:09:00.920Z,1024.2
2023-03-03T20:14:21.405Z,1024.2
2023-03-03T20:20:18.921Z,1024.3
2023-03-03T20:25:42.362Z,1024.5
2023-03-03T20:31:14.287Z,1024.5
2023-03-03T20:37:02.499Z,1024.5
2023-03-03T20:42:09.103Z,1024.5
2023-03-03T20:48:04.776Z,1024.5
2023-03-03T20:53:29.882Z,1024.4
2023-03-03T20:59:02.868Z,1024.5
2023-03-03T21:04:37.180Z,1024.6
2023-03-03T21:10:12.788Z,1024.8
2023-03-03T21:15:49.848Z,1024.8
2023-03-03T21:21:09.855Z,1024.8
2023-03-03T21:26:49.382Z,1024.9
2023-03-03T21:32:14.221Z,1024.8
2023-03-03T21:38:01.333Z,1024.9
2023-03-03T21:43:28.552Z,1024.8
2023-03-03T21:49:08.952Z,1024.9
2023-03-03T21:54:42.608Z,1024.8
2023-03-03T22:00:14.782Z,1024.9
2023-03-03T22:05:34.004Z,1024.8
2023-03-03T22:11:11.559Z,1024.9
2023-03-03T22:16:46.821Z,1024.9
2023-03-03T22:22:14.397Z,1024.9
2023-03-03T22:27:48.542Z,1024.9
2023-03-03T22:33:26.631Z,1025
2023-03-03T22:38:54.434Z,1024.9
2023-03-03T22:44:25.606Z,1024.9
2023-03-03T22:50:06.863Z,1024.9
2023-03-03T22:55:46.925Z,1025
2023-03-03T23:00:58.831Z,1025
2023-03-03T23:06:39.672Z,1025
2023-03-03T23:12:23.616Z,1025.1
2023-03-03T23:17:41.042Z,1025.1
2023-03-03T23:23:07.201Z,1025
2023-03-03T23:28:48.298Z,1024.9
2023-03-03T23:34:20.772Z,1024.9
2023-03-03T23:40:11.274Z,1024.8
2023-03-03T23:45:28.059Z,1024.7
2023-03-03T23:50:52.429Z,1024.7
2023-03-03T23:56:25.991Z,1024.8
